createdAt,value
2022-12-05T00:01:34.096Z,2.60
2022-12-05T00:04:07.665Z,2.68
2022-12-05T00:06:41.757Z,2.58
2022-12-05T00:09:14.382Z,2.61
2022-12-05T00:11:47.110Z,2.52
2022-12-05T00:14:17.552Z,2.60
2022-12-05T00:16:48.303Z,2.58
2022-12-05T00:19:21.803Z,2.64
2022-12-05T00:21:54.894Z,2.64
2022-12-05T00:24:25.674Z,2.64
2022-12-05T00:27:01.814Z,2.69
2022-12-05T00:29:32.589Z,2.62
2022-12-05T00:32:04.740Z,2.64
2022-12-05T00:34:35.815Z,2.68
2022-12-05T00:37:07.131Z,2.60
2022-12-05T00:39:40.739Z,2.60
2022-12-05T00:42:12.674Z,2.62
2022-12-05T00:44:43.209Z,2.60
2022-12-05T00:47:15.039Z,2.62
2022-12-05T00:49:45.437Z,2.60
2022-12-05T00:52:17.475Z,2.58
2022-12-05T00:54:48.026Z,2.57
2022-12-05T00:57:19.790Z,2.57
2022-12-05T00:59:50.927Z,2.58
2022-12-05T01:02:23.004Z,2.68
2022-12-05T01:04:53.618Z,2.60
2022-12-05T01:07:24.407Z,2.64
2022-12-05T01:09:58.718Z,2.65
2022-12-05T01:12:29.404Z,2.54
2022-12-05T01:15:00.090Z,2.64
2022-12-05T01:17:30.641Z,2.64
2022-12-05T01:20:02.670Z,2.68
2022-12-05T01:22:33.100Z,2.60
2022-12-05T01:25:05.971Z,2.64
2022-12-05T01:27:38.202Z,2.70
2022-12-05T01:30:09.857Z,2.60
2022-12-05T01:32:40.762Z,2.62
2022-12-05T01:35:13.099Z,2.62
2022-12-05T01:37:43.534Z,2.60
2022-12-05T01:40:14.175Z,2.62
2022-12-05T01:42:46.586Z,2.62
2022-12-05T01:45:35.026Z,2.62
2022-12-05T01:48:09.641Z,2.66
2022-12-05T01:50:40.731Z,2.58
2022-12-05T01:53:11.541Z,2.60
2022-12-05T01:55:42.484Z,2.63
2022-12-05T01:58:13.339Z,2.60
2022-12-05T02:00:45.109Z,2.62
2022-12-05T02:03:22.699Z,2.65
2022-12-05T02:05:58.257Z,2.66
2022-12-05T02:08:29.539Z,2.60
2022-12-05T02:11:02.893Z,2.62
2022-12-05T02:13:54.319Z,2.56
2022-12-05T02:16:58.732Z,2.56
2022-12-05T02:20:00.820Z,2.64
2022-12-05T02:23:09.634Z,2.64
2022-12-05T02:26:14.908Z,2.61
2022-12-05T02:29:08.246Z,2.63
2022-12-05T02:31:45.163Z,2.63
2022-12-05T02:34:27.863Z,2.54
2022-12-05T02:37:04.673Z,2.56
2022-12-05T02:39:38.570Z,2.54
2022-12-05T02:42:27.093Z,2.62
2022-12-05T02:45:13.254Z,2.60
2022-12-05T02:47:48.481Z,2.66
2022-12-05T02:50:22.058Z,2.66
2022-12-05T02:52:56.241Z,2.68
2022-12-05T02:55:29.312Z,2.64
2022-12-05T02:58:04.346Z,2.64
2022-12-05T03:00:38.828Z,2.58
2022-12-05T03:03:16.306Z,2.68
2022-12-05T03:05:50.944Z,2.67
2022-12-05T03:08:24.807Z,2.70
2022-12-05T03:10:56.666Z,2.68
2022-12-05T03:13:30.226Z,2.72
2022-12-05T03:16:06.636Z,2.68
2022-12-05T03:18:41.144Z,2.67
2022-12-05T03:21:33.548Z,2.66
2022-12-05T03:24:13.110Z,2.68
2022-12-05T03:27:10.066Z,2.68
2022-12-05T03:30:02.052Z,2.62
2022-12-05T03:32:44.693Z,2.70
2022-12-05T03:35:31.177Z,2.68
2022-12-05T03:38:23.391Z,2.70
2022-12-05T03:41:01.052Z,2.68
2022-12-05T03:43:35.003Z,2.68
2022-12-05T03:46:14.836Z,2.68
2022-12-05T03:48:57.761Z,2.69
2022-12-05T03:51:31.376Z,2.68
2022-12-05T03:54:05.226Z,2.68
2022-12-05T03:56:47.917Z,2.66
2022-12-05T03:59:30.267Z,2.66
2022-12-05T04:02:04.091Z,2.68
2022-12-05T04:04:40.849Z,2.69
2022-12-05T04:07:14.140Z,2.66
2022-12-05T04:09:53.390Z,2.69
2022-12-05T04:12:27.592Z,2.71
2022-12-05T04:15:03.142Z,2.66
2022-12-05T04:17:36.742Z,2.70
2022-12-05T04:20:28.078Z,2.68
2022-12-05T04:22:59.337Z,2.74
2022-12-05T04:25:38.314Z,2.80
2022-12-05T04:28:21.716Z,2.87
2022-12-05T04:31:09.793Z,2.76
2022-12-05T04:33:59.640Z,2.75
2022-12-05T04:36:36.108Z,2.68
2022-12-05T04:39:29.993Z,2.66
2022-12-05T04:42:05.081Z,2.70
2022-12-05T04:44:38.632Z,2.66
2022-12-05T04:47:12.237Z,2.65
2022-12-05T04:49:50.583Z,2.74
2022-12-05T04:52:17.902Z,2.72
2022-12-05T04:54:57.616Z,2.73
2022-12-05T04:57:44.266Z,2.72
2022-12-05T05:00:16.803Z,2.67
2022-12-05T05:02:59.110Z,2.72
2022-12-05T05:05:31.031Z,2.73
2022-12-05T05:08:01.618Z,2.77
2022-12-05T05:10:38.288Z,2.75
2022-12-05T05:13:10.558Z,2.72
2022-12-05T05:15:42.595Z,2.72
2022-12-05T05:18:13.258Z,2.67
2022-12-05T05:20:43.643Z,2.70
2022-12-05T05:23:14.572Z,2.68
2022-12-05T05:25:46.301Z,2.68
2022-12-05T05:28:16.885Z,2.68
2022-12-05T05:30:49.155Z,2.72
2022-12-05T05:33:19.977Z,2.74
2022-12-05T05:35:50.498Z,2.71
2022-12-05T05:38:21.316Z,2.68
2022-12-05T05:40:52.274Z,2.72
2022-12-05T05:43:26.264Z,2.70
2022-12-05T05:45:58.451Z,2.70
2022-12-05T05:48:29.214Z,2.68
2022-12-05T05:51:04.290Z,2.72
2022-12-05T05:53:35.915Z,2.74
2022-12-05T05:56:09.309Z,2.78
2022-12-05T05:58:42.774Z,2.78
2022-12-05T06:01:20.619Z,2.76
2022-12-05T06:03:51.974Z,2.78
2022-12-05T06:06:23.610Z,2.86
2022-12-05T06:08:55.087Z,2.84
2022-12-05T06:11:28.569Z,2.83
2022-12-05T06:14:02.122Z,2.82
2022-12-05T06:16:34.918Z,2.82
2022-12-05T06:19:05.397Z,2.84
2022-12-05T06:21:36.802Z,2.85
2022-12-05T06:24:07.912Z,2.87
2022-12-05T06:26:38.401Z,2.85
2022-12-05T06:29:10.128Z,2.86
2022-12-05T06:31:42.484Z,2.92
2022-12-05T06:34:13.064Z,2.91
2022-12-05T06:36:43.564Z,2.87
2022-12-05T06:39:15.599Z,2.90
2022-12-05T06:41:47.781Z,2.88
2022-12-05T06:44:18.233Z,2.93
2022-12-05T06:46:52.297Z,2.92
2022-12-05T06:49:31.697Z,2.90
2022-12-05T06:52:00.133Z,2.90
2022-12-05T06:54:33.978Z,2.88
2022-12-05T06:57:04.479Z,2.82
2022-12-05T06:59:35.676Z,2.88
2022-12-05T07:02:10.572Z,2.89
2022-12-05T07:04:40.999Z,2.92
2022-12-05T07:07:14.490Z,2.90
2022-12-05T07:09:48.300Z,2.89
2022-12-05T07:12:20.871Z,2.96
2022-12-05T07:14:56.590Z,2.95
2022-12-05T07:17:27.656Z,2.94
2022-12-05T07:19:58.312Z,2.98
2022-12-05T07:22:29.176Z,2.92
2022-12-05T07:24:59.730Z,2.88
2022-12-05T07:27:31.750Z,2.88
2022-12-05T07:30:02.730Z,2.91
2022-12-05T07:32:38.386Z,2.94
2022-12-05T07:35:10.422Z,2.92
2022-12-05T07:37:40.953Z,2.96
2022-12-05T07:40:15.487Z,2.92
2022-12-05T07:42:47.480Z,2.96
2022-12-05T07:45:18.421Z,2.92
2022-12-05T07:47:49.262Z,2.90
2022-12-05T07:50:21.173Z,2.96
2022-12-05T07:52:51.644Z,2.88
2022-12-05T07:55:22.332Z,2.88
2022-12-05T07:57:55.485Z,2.96
2022-12-05T08:00:27.478Z,2.96
2022-12-05T08:02:58.272Z,2.98
2022-12-05T08:05:31.411Z,2.94
2022-12-05T08:08:02.659Z,2.96
2022-12-05T08:10:35.242Z,3.02
2022-12-05T08:13:07.673Z,2.95
2022-12-05T08:15:39.787Z,2.94
2022-12-05T08:18:10.556Z,2.94
2022-12-05T08:20:43.688Z,3.08
2022-12-05T08:23:14.319Z,2.94
2022-12-05T08:25:46.649Z,2.97
2022-12-05T08:28:17.200Z,3.00
2022-12-05T08:30:47.910Z,2.99
2022-12-05T08:33:19.587Z,3.02
2022-12-05T08:35:50.180Z,3.12
2022-12-05T08:38:22.418Z,3.20
2022-12-05T08:40:53.698Z,3.17
2022-12-05T08:43:28.243Z,3.12
2022-12-05T08:45:59.727Z,3.12
2022-12-05T08:48:32.422Z,3.18
2022-12-05T08:51:08.830Z,3.10
2022-12-05T08:53:44.326Z,3.14
2022-12-05T08:56:13.899Z,3.18
2022-12-05T08:58:45.402Z,3.14
2022-12-05T09:01:22.120Z,3.08
2022-12-05T09:03:54.697Z,3.22
2022-12-05T09:06:28.046Z,3.36
2022-12-05T09:09:04.123Z,3.26
2022-12-05T09:11:37.567Z,3.24
2022-12-05T09:14:08.704Z,3.12
2022-12-05T09:16:39.801Z,3.06
2022-12-05T09:19:21.027Z,3.06
2022-12-05T09:21:53.353Z,3.04
2022-12-05T09:24:24.470Z,3.10
2022-12-05T09:26:55.011Z,3.16
2022-12-05T09:29:27.270Z,3.22
2022-12-05T09:31:58.178Z,3.12
2022-12-05T09:34:29.371Z,3.24
2022-12-05T09:37:23.238Z,3.19
2022-12-05T09:39:35.995Z,3.27
2022-12-05T09:42:26.029Z,3.20
2022-12-05T09:45:18.007Z,3.30
2022-12-05T09:48:03.809Z,3.29
2022-12-05T09:50:47.515Z,3.33
2022-12-05T09:53:37.465Z,3.36
2022-12-05T09:56:23.996Z,3.31
2022-12-05T09:58:56.306Z,3.32
2022-12-05T10:01:49.058Z,3.29
2022-12-05T10:04:35.151Z,3.36
2022-12-05T10:07:17.132Z,3.26
2022-12-05T10:10:05.892Z,3.22
2022-12-05T10:13:12.725Z,3.28
2022-12-05T10:16:00.996Z,3.16
2022-12-05T10:18:49.486Z,3.15
2022-12-05T10:21:26.005Z,3.14
2022-12-05T10:23:59.833Z,3.24
2022-12-05T10:26:48.502Z,3.17
2022-12-05T10:29:44.926Z,3.26
2022-12-05T10:32:18.411Z,3.22
2022-12-05T10:34:51.011Z,3.39
2022-12-05T10:37:37.281Z,3.33
2022-12-05T10:40:10.090Z,3.22
2022-12-05T10:42:41.101Z,3.24
2022-12-05T10:45:23.548Z,3.28
2022-12-05T10:47:58.804Z,3.40
2022-12-05T10:50:34.923Z,3.28
2022-12-05T10:53:08.141Z,3.34
2022-12-05T10:56:06.854Z,3.39
2022-12-05T10:58:26.965Z,3.32
2022-12-05T11:01:10.251Z,3.20
2022-12-05T11:03:43.657Z,3.32
2022-12-05T11:06:26.096Z,3.35
2022-12-05T11:09:05.414Z,3.36
2022-12-05T11:11:38.165Z,3.38
2022-12-05T11:14:24.055Z,3.36
2022-12-05T11:16:58.704Z,3.38
2022-12-05T11:19:35.370Z,3.35
2022-12-05T11:22:10.262Z,3.24
2022-12-05T11:24:44.052Z,3.36
2022-12-05T11:27:23.004Z,3.42
2022-12-05T11:29:59.672Z,3.45
2022-12-05T11:32:33.712Z,3.49
2022-12-05T11:35:16.550Z,3.31
2022-12-05T11:38:02.259Z,3.38
2022-12-05T11:40:38.683Z,3.47
2022-12-05T11:43:36.534Z,3.50
2022-12-05T11:46:27.289Z,3.53
2022-12-05T11:49:31.533Z,3.48
2022-12-05T11:52:05.613Z,3.50
2022-12-05T11:55:08.929Z,3.34
2022-12-05T11:57:48.904Z,3.33
2022-12-05T12:00:37.712Z,3.41
2022-12-05T12:03:22.607Z,3.38
2022-12-05T12:06:11.785Z,3.54
2022-12-05T12:09:06.447Z,3.60
2022-12-05T12:11:47.503Z,3.66
2022-12-05T12:14:42.073Z,3.68
2022-12-05T12:17:42.418Z,3.56
2022-12-05T12:20:22.468Z,3.75
2022-12-05T12:23:08.385Z,3.68
2022-12-05T12:26:04.189Z,3.54
2022-12-05T12:28:45.699Z,3.59
2022-12-05T12:31:23.691Z,3.42
2022-12-05T12:34:03.430Z,3.46
2022-12-05T12:36:53.358Z,3.46
2022-12-05T12:39:33.141Z,3.44
2022-12-05T12:42:18.500Z,3.41
2022-12-05T12:45:18.371Z,3.52
2022-12-05T12:48:14.807Z,3.50
2022-12-05T12:50:52.538Z,3.58
2022-12-05T12:53:27.703Z,3.63
2022-12-05T12:56:07.586Z,3.59
2022-12-05T12:59:03.295Z,3.69
2022-12-05T13:02:08.798Z,3.62
2022-12-05T13:04:57.467Z,3.62
2022-12-05T13:07:37.275Z,3.78
2022-12-05T13:10:16.569Z,3.72
2022-12-05T13:12:47.856Z,3.69
2022-12-05T13:15:21.417Z,3.71
2022-12-05T13:17:54.612Z,3.75
2022-12-05T13:20:28.250Z,3.77
2022-12-05T13:23:03.263Z,3.73
2022-12-05T13:25:34.352Z,3.64
2022-12-05T13:28:08.499Z,3.66
2022-12-05T13:30:43.663Z,3.62
2022-12-05T13:33:20.440Z,3.64
2022-12-05T13:36:12.844Z,3.60
2022-12-05T13:38:59.848Z,3.56
2022-12-05T13:42:05.754Z,3.64
2022-12-05T13:44:44.086Z,3.68
2022-12-05T13:47:33.312Z,3.63
2022-12-05T13:50:09.345Z,3.64
2022-12-05T13:52:45.812Z,3.63
2022-12-05T13:55:36.542Z,3.76
2022-12-05T13:58:47.337Z,3.68
2022-12-05T14:01:36.189Z,3.72
2022-12-05T14:04:10.899Z,3.68
2022-12-05T14:06:50.650Z,3.68
2022-12-05T14:09:31.700Z,3.66
2022-12-05T14:12:17.211Z,3.63
2022-12-05T14:15:04.090Z,3.74
2022-12-05T14:17:47.153Z,3.67
2022-12-05T14:20:22.190Z,3.68
2022-12-05T14:23:30.798Z,3.79
2022-12-05T14:26:17.077Z,3.88
2022-12-05T14:29:03.745Z,3.88
2022-12-05T14:31:53.244Z,3.86
2022-12-05T14:34:26.289Z,3.90
2022-12-05T14:36:59.878Z,4.02
2022-12-05T14:39:52.154Z,3.98
2022-12-05T14:42:35.554Z,4.01
2022-12-05T14:45:30.358Z,4.04
2022-12-05T14:48:03.830Z,4.00
2022-12-05T14:50:48.921Z,4.02
2022-12-05T14:53:35.350Z,3.88
2022-12-05T14:56:18.693Z,3.90
2022-12-05T14:59:05.384Z,3.89
2022-12-05T15:01:49.241Z,3.98
2022-12-05T15:04:24.581Z,4.04
2022-12-05T15:06:58.225Z,3.98
2022-12-05T15:09:48.536Z,3.88
2022-12-05T15:12:28.056Z,3.94
2022-12-05T15:15:10.340Z,3.86
2022-12-05T15:17:46.724Z,3.82
2022-12-05T15:20:29.266Z,3.84
2022-12-05T15:23:00.932Z,3.87
2022-12-05T15:25:33.401Z,3.94
2022-12-05T15:28:09.986Z,4.02
2022-12-05T15:30:42.639Z,4.08
2022-12-05T15:33:15.759Z,4.08
2022-12-05T15:35:49.070Z,4.20
2022-12-05T15:38:29.261Z,4.20
2022-12-05T15:41:01.714Z,4.23
2022-12-05T15:43:36.376Z,4.08
2022-12-05T15:46:13.215Z,4.08
2022-12-05T15:48:43.598Z,4.08
2022-12-05T15:51:14.897Z,4.18
2022-12-05T15:53:48.400Z,4.12
2022-12-05T15:56:30.968Z,4.18
2022-12-05T15:59:18.049Z,4.16
2022-12-05T16:01:53.285Z,4.23
2022-12-05T16:04:39.022Z,4.23
2022-12-05T16:07:13.377Z,4.26
2022-12-05T16:09:47.384Z,4.34
2022-12-05T16:12:27.330Z,4.24
2022-12-05T16:15:01.773Z,4.18
2022-12-05T16:17:50.711Z,4.12
2022-12-05T16:20:27.649Z,4.20
2022-12-05T16:23:10.202Z,4.22
2022-12-05T16:25:40.853Z,4.18
2022-12-05T16:28:20.570Z,4.19
2022-12-05T16:31:02.587Z,4.28
2022-12-05T16:33:38.839Z,4.24
2022-12-05T16:36:11.631Z,4.24
2022-12-05T16:38:45.342Z,4.32
2022-12-05T16:41:19.176Z,4.37
2022-12-05T16:43:52.993Z,4.36
2022-12-05T16:46:39.827Z,4.34
2022-12-05T16:49:22.563Z,4.32
2022-12-05T16:51:59.416Z,4.34
2022-12-05T16:54:30.759Z,4.24
2022-12-05T16:57:15.037Z,4.34
2022-12-05T16:59:49.252Z,4.41
2022-12-05T17:02:20.460Z,4.20
2022-12-05T17:04:54.759Z,4.18
2022-12-05T17:07:31.029Z,4.34
2022-12-05T17:10:00.853Z,4.29
2022-12-05T17:12:31.963Z,4.24
2022-12-05T17:15:03.906Z,4.21
2022-12-05T17:17:35.835Z,4.31
2022-12-05T17:20:07.397Z,4.32
2022-12-05T17:22:39.373Z,4.36
2022-12-05T17:25:29.531Z,4.48
2022-12-05T17:28:01.940Z,4.43
2022-12-05T17:30:35.215Z,4.40
2022-12-05T17:33:08.016Z,4.46
2022-12-05T17:35:41.587Z,4.47
2022-12-05T17:38:14.588Z,4.40
2022-12-05T17:40:49.239Z,4.53
2022-12-05T17:43:24.981Z,4.49
2022-12-05T17:45:54.206Z,4.64
2022-12-05T17:48:28.676Z,4.56
2022-12-05T17:50:59.335Z,4.46
2022-12-05T17:53:32.243Z,4.53
2022-12-05T17:56:04.491Z,4.61
2022-12-05T17:58:35.133Z,4.56
2022-12-05T18:01:08.811Z,4.52
2022-12-05T18:03:40.242Z,4.59
2022-12-05T18:06:12.799Z,4.60
2022-12-05T18:08:46.113Z,4.74
2022-12-05T18:11:19.583Z,4.67
2022-12-05T18:13:52.767Z,4.68
2022-12-05T18:16:23.456Z,4.68
2022-12-05T18:18:57.024Z,4.70
2022-12-05T18:21:28.044Z,4.65
2022-12-05T18:23:58.610Z,4.73
2022-12-05T18:26:29.932Z,4.68
2022-12-05T18:29:00.624Z,4.84
2022-12-05T18:31:36.424Z,4.93
2022-12-05T18:34:07.006Z,4.76
2022-12-05T18:36:38.043Z,4.96
2022-12-05T18:39:11.533Z,4.94
2022-12-05T18:41:43.544Z,4.80
2022-12-05T18:44:15.838Z,4.78
2022-12-05T18:46:46.447Z,5.04
2022-12-05T18:49:17.659Z,4.76
2022-12-05T18:51:49.584Z,4.92
2022-12-05T18:54:20.111Z,4.84
2022-12-05T18:56:54.168Z,4.84
2022-12-05T18:59:26.328Z,4.90
2022-12-05T19:01:58.830Z,4.91
2022-12-05T19:04:30.212Z,4.89
2022-12-05T19:07:03.447Z,4.98
2022-12-05T19:09:35.575Z,4.95
2022-12-05T19:12:07.887Z,4.84
2022-12-05T19:14:38.889Z,4.78
2022-12-05T19:17:09.718Z,4.63
2022-12-05T19:19:40.669Z,4.62
2022-12-05T19:22:12.830Z,4.58
2022-12-05T19:24:46.473Z,4.69
2022-12-05T19:27:17.246Z,4.64
2022-12-05T19:29:47.705Z,4.65
2022-12-05T19:32:19.995Z,4.58
2022-12-05T19:34:51.456Z,4.50
2022-12-05T19:37:21.941Z,4.52
2022-12-05T19:39:52.579Z,4.68
2022-12-05T19:42:24.638Z,4.60
2022-12-05T19:45:00.951Z,4.68
2022-12-05T19:47:36.263Z,4.64
2022-12-05T19:50:08.384Z,4.68
2022-12-05T19:52:39.565Z,4.52
2022-12-05T19:55:10.738Z,4.55
2022-12-05T19:57:41.397Z,4.56
2022-12-05T20:00:12.441Z,4.50
2022-12-05T20:02:45.561Z,4.60
2022-12-05T20:05:15.466Z,4.58
2022-12-05T20:07:48.792Z,4.48
2022-12-05T20:10:19.474Z,4.49
2022-12-05T20:12:50.145Z,4.58
2022-12-05T20:15:22.719Z,4.39
2022-12-05T20:17:53.511Z,4.42
2022-12-05T20:20:25.271Z,4.40
2022-12-05T20:22:55.773Z,4.35
2022-12-05T20:25:27.867Z,4.42
2022-12-05T20:27:59.179Z,4.30
2022-12-05T20:30:30.581Z,4.34
2022-12-05T20:33:02.938Z,4.34
2022-12-05T20:35:40.597Z,4.32
2022-12-05T20:38:13.279Z,4.18
2022-12-05T20:40:43.758Z,4.36
2022-12-05T20:43:15.859Z,4.28
2022-12-05T20:45:46.433Z,4.33
2022-12-05T20:48:16.914Z,4.32
2022-12-05T20:50:47.591Z,4.24
2022-12-05T20:53:20.375Z,4.26
2022-12-05T20:55:52.068Z,4.30
2022-12-05T20:58:23.061Z,4.14
2022-12-05T21:01:01.527Z,4.12
2022-12-05T21:03:32.327Z,4.18
2022-12-05T21:06:12.241Z,4.24
2022-12-05T21:08:43.540Z,4.08
2022-12-05T21:11:15.023Z,4.13
2022-12-05T21:13:46.472Z,4.16
2022-12-05T21:16:20.087Z,4.14
2022-12-05T21:18:53.483Z,3.95
2022-12-05T21:21:27.021Z,4.12
2022-12-05T21:24:02.856Z,4.05
2022-12-05T21:26:35.613Z,4.23
2022-12-05T21:29:08.496Z,4.05
2022-12-05T21:31:42.200Z,4.05
2022-12-05T21:34:21.577Z,4.16
2022-12-05T21:36:53.708Z,4.10
2022-12-05T21:39:24.149Z,4.14
2022-12-05T21:41:58.348Z,3.98
2022-12-05T21:44:28.685Z,3.98
2022-12-05T21:46:59.854Z,3.97
2022-12-05T21:49:30.335Z,3.92
2022-12-05T21:52:00.962Z,3.90
2022-12-05T21:54:31.480Z,3.82
2022-12-05T21:57:02.873Z,3.95
2022-12-05T21:59:33.333Z,3.87
2022-12-05T22:02:04.421Z,4.08
2022-12-05T22:04:35.592Z,3.86
2022-12-05T22:07:08.405Z,3.70
2022-12-05T22:09:38.764Z,4.19
2022-12-05T22:12:10.130Z,4.38
2022-12-05T22:14:40.602Z,5.10
2022-12-05T22:17:12.745Z,4.84
2022-12-05T22:19:43.212Z,4.62
2022-12-05T22:22:13.760Z,4.42
2022-12-05T22:24:46.448Z,4.20
2022-12-05T22:27:17.142Z,4.06
2022-12-05T22:29:52.541Z,4.02
2022-12-05T22:32:21.618Z,3.82
2022-12-05T22:34:52.186Z,3.86
2022-12-05T22:37:22.647Z,3.96
2022-12-05T22:39:53.731Z,3.90
2022-12-05T22:42:24.149Z,3.81
2022-12-05T22:44:56.013Z,4.00
2022-12-05T22:47:26.457Z,3.91
2022-12-05T22:49:57.279Z,3.96
2022-12-05T22:52:30.741Z,4.07
2022-12-05T22:55:01.518Z,3.68
2022-12-05T22:57:34.551Z,3.90
2022-12-05T23:00:07.562Z,3.86
2022-12-05T23:02:38.175Z,3.82
2022-12-05T23:05:09.565Z,3.83
2022-12-05T23:07:41.535Z,3.80
2022-12-05T23:10:12.259Z,3.76
2022-12-05T23:12:44.660Z,3.68
2022-12-05T23:15:15.004Z,3.64
2022-12-05T23:17:48.269Z,3.66
2022-12-05T23:20:18.826Z,3.58
2022-12-05T23:22:49.213Z,3.64
2022-12-05T23:25:21.391Z,3.60
2022-12-05T23:27:52.003Z,3.83
2022-12-05T23:30:22.524Z,3.60
2022-12-05T23:32:52.977Z,3.57
2022-12-05T23:35:23.452Z,3.50
2022-12-05T23:37:54.746Z,3.70
2022-12-05T23:40:25.176Z,3.52
2022-12-05T23:42:55.624Z,3.59
2022-12-05T23:45:26.837Z,3.76
2022-12-05T23:48:01.715Z,3.58
2022-12-05T23:50:29.464Z,3.40
2022-12-05T23:52:59.939Z,3.74
2022-12-05T23:55:30.343Z,3.61
2022-12-05T23:58:02.992Z,3.47
